Map

Track Data

SID SEASON NUMBER BASIN SUBBASIN NAME ISO_TIME NATURE LAT LON WMO_WIND WMO_PRES WMO_AGENCY TRACK_TYPE DIST2LAND LANDFALL IFLAG USA_AGENCY USA_ATCF_ID USA_LAT USA_LON USA_RECORD USA_STATUS USA_WIND USA_PRES USA_SSHS USA_R34_NE USA_R34_SE USA_R34_SW USA_R34_NW USA_R50_NE USA_R50_SE USA_R50_SW USA_R50_NW USA_R64_NE USA_R64_SE USA_R64_SW USA_R64_NW USA_POCI USA_ROCI USA_RMW USA_EYE TOKYO_LAT TOKYO_LON TOKYO_GRADE TOKYO_WIND TOKYO_PRES TOKYO_R50_DIR TOKYO_R50_LONG TOKYO_R50_SHORT TOKYO_R30_DIR TOKYO_R30_LONG TOKYO_R30_SHORT TOKYO_LAND CMA_LAT CMA_LON CMA_CAT CMA_WIND CMA_PRES HKO_LAT HKO_LON HKO_CAT HKO_WIND HKO_PRES NEWDELHI_LAT NEWDELHI_LON NEWDELHI_GRADE NEWDELHI_WIND NEWDELHI_PRES NEWDELHI_CI NEWDELHI_DP NEWDELHI_POCI REUNION_LAT REUNION_LON REUNION_TYPE REUNION_WIND REUNION_PRES REUNION_TNUM REUNION_CI REUNION_RMW REUNION_R34_NE REUNION_R34_SE REUNION_R34_SW REUNION_R34_NW REUNION_R50_NE REUNION_R50_SE REUNION_R50_SW REUNION_R50_NW REUNION_R64_NE REUNION_R64_SE REUNION_R64_SW REUNION_R64_NW BOM_LAT BOM_LON BOM_TYPE BOM_WIND BOM_PRES BOM_TNUM BOM_CI BOM_RMW BOM_R34_NE BOM_R34_SE BOM_R34_SW BOM_R34_NW BOM_R50_NE BOM_R50_SE BOM_R50_SW BOM_R50_NW BOM_R64_NE BOM_R64_SE BOM_R64_SW BOM_R64_NW BOM_ROCI BOM_POCI BOM_EYE BOM_POS_METHOD BOM_PRES_METHOD NADI_LAT NADI_LON NADI_CAT NADI_WIND NADI_PRES WELLINGTON_LAT WELLINGTON_LON WELLINGTON_WIND WELLINGTON_PRES DS824_LAT DS824_LON DS824_STAGE DS824_WIND DS824_PRES TD9636_LAT TD9636_LON TD9636_STAGE TD9636_WIND TD9636_PRES TD9635_LAT TD9635_LON TD9635_WIND TD9635_PRES TD9635_ROCI NEUMANN_LAT NEUMANN_LON NEUMANN_CLASS NEUMANN_WIND NEUMANN_PRES MLC_LAT MLC_LON MLC_CLASS MLC_WIND MLC_PRES USA_GUST BOM_GUST BOM_GUST_PER REUNION_GUST REUNION_GUST_PER USA_SEAHGT USA_SEARAD_NE USA_SEARAD_SE USA_SEARAD_SW USA_SEARAD_NW STORM_SPEED STORM_DIR
1927266N10324 1927 50 NA NA NOT_NAMED 1927-09-22 12:00:00 TS 10.3000 -36.0000 30 hurdat_atl main 1537 1537 O_____________ hurdat_atl AL031927 10.3000 -36.0000 TD 30 -1 7 315
1927266N10324 1927 50 NA NA NOT_NAMED 1927-09-22 15:00:00 TS 10.5500 -36.2499 main 1564 1561 P_____________ AL031927 10.5500 -36.2499 TD 30 -1 7 315
1927266N10324 1927 50 NA NA NOT_NAMED 1927-09-22 18:00:00 TS 10.8000 -36.5000 30 hurdat_atl main 1577 1577 O_____________ hurdat_atl AL031927 10.8000 -36.5000 TD 30 -1 7 315
1927266N10324 1927 50 NA NA NOT_NAMED 1927-09-22 21:00:00 TS 11.0500 -36.7500 main 1592 1592 P_____________ AL031927 11.0500 -36.7500 TD 32 -1 7 315
1927266N10324 1927 50 NA NA NOT_NAMED 1927-09-23 00:00:00 TS 11.3000 -37.0000 35 hurdat_atl main 1620 1620 O_____________ hurdat_atl AL031927 11.3000 -37.0000 TS 35 0 7 316
1927266N10324 1927 50 NA NA NOT_NAMED 1927-09-23 03:00:00 TS 11.5575 -37.2500 main 1648 1648 P_____________ AL031927 11.5575 -37.2500 TS 35 0 7 316
1927266N10324 1927 50 NA NA NOT_NAMED 1927-09-23 06:00:00 TS 11.8000 -37.5000 35 hurdat_atl main 1666 1664 O_____________ hurdat_atl AL031927 11.8000 -37.5000 TS 35 0 7 313
1927266N10324 1927 50 NA NA NOT_NAMED 1927-09-23 09:00:00 TS 12.0075 -37.7501 main 1684 1684 P_____________ AL031927 12.0075 -37.7501 TS 35 0 6 309
1927266N10324 1927 50 NA NA NOT_NAMED 1927-09-23 12:00:00 TS 12.2000 -38.0000 35 hurdat_atl main 1703 1697 O_____________ hurdat_atl AL031927 12.2000 -38.0000 TS 35 0 6 309
1927266N10324 1927 50 NA NA NOT_NAMED 1927-09-23 15:00:00 TS 12.4000 -38.2500 main 1693 1687 P_____________ AL031927 12.4000 -38.2500 TS 35 0 6 309
1927266N10324 1927 50 NA NA NOT_NAMED 1927-09-23 18:00:00 TS 12.6000 -38.5000 35 hurdat_atl main 1687 1674 O_____________ hurdat_atl AL031927 12.6000 -38.5000 TS 35 0 6 309
1927266N10324 1927 50 NA NA NOT_NAMED 1927-09-23 21:00:00 TS 12.8000 -38.7500 main 1671 1666 P_____________ AL031927 12.8000 -38.7500 TS 37 0 6 309
1927266N10324 1927 50 NA NA NOT_NAMED 1927-09-24 00:00:00 TS 13.0000 -39.0000 40 hurdat_atl main 1666 1655 O_____________ hurdat_atl AL031927 13.0000 -39.0000 TS 40 0 6 309
1927266N10324 1927 50 NA NA NOT_NAMED 1927-09-24 03:00:00 TS 13.2000 -39.2500 main 1652 1648 P_____________ AL031927 13.2000 -39.2500 TS 40 0 6 309
1927266N10324 1927 50 NA NA NOT_NAMED 1927-09-24 06:00:00 TS 13.4000 -39.5000 40 hurdat_atl main 1648 1638 O_____________ hurdat_atl AL031927 13.4000 -39.5000 TS 40 0 6 310
1927266N10324 1927 50 NA NA NOT_NAMED 1927-09-24 09:00:00 TS 13.6000 -39.7426 main 1645 1634 P_____________ AL031927 13.6000 -39.7426 TS 40 0 6 309
1927266N10324 1927 50 NA NA NOT_NAMED 1927-09-24 12:00:00 TS 13.8000 -40.0000 40 hurdat_atl main 1634 1624 O_____________ hurdat_atl AL031927 13.8000 -40.0000 TS 40 0 7 308
1927266N10324 1927 50 NA NA NOT_NAMED 1927-09-24 15:00:00 TS 14.0075 -40.2850 main 1624 1614 P_____________ AL031927 14.0075 -40.2850 TS 40 0 7 304
1927266N10324 1927 50 NA NA NOT_NAMED 1927-09-24 18:00:00 TS 14.2000 -40.6000 40 hurdat_atl main 1614 1598 O_____________ hurdat_atl AL031927 14.2000 -40.6000 TS 40 0 7 299
1927266N10324 1927 50 NA NA NOT_NAMED 1927-09-24 21:00:00 TS 14.3499 -40.9351 main 1598 1583 P_____________ AL031927 14.3499 -40.9351 TS 40 0 7 294
1927266N10324 1927 50 NA NA NOT_NAMED 1927-09-25 00:00:00 TS 14.5000 -41.3000 40 hurdat_atl main 1583 1568 O_____________ hurdat_atl AL031927 14.5000 -41.3000 TS 40 0 8 295
1927266N10324 1927 50 NA NA NOT_NAMED 1927-09-25 03:00:00 TS 14.6924 -41.6850 main 1569 1556 P_____________ AL031927 14.6924 -41.6850 TS 40 0 9 297
1927266N10324 1927 50 NA NA NOT_NAMED 1927-09-25 06:00:00 TS 14.9000 -42.1000 40 hurdat_atl main 1557 1544 O_____________ hurdat_atl AL031927 14.9000 -42.1000 TS 40 0 9 296
1927266N10324 1927 50 NA NA NOT_NAMED 1927-09-25 09:00:00 TS 15.1000 -42.5500 main 1539 1528 P_____________ AL031927 15.1000 -42.5500 TS 40 0 10 295
1927266N10324 1927 50 NA NA NOT_NAMED 1927-09-25 12:00:00 TS 15.3000 -43.0000 40 hurdat_atl main 1530 1520 O_____________ hurdat_atl AL031927 15.3000 -43.0000 TS 40 0 9 295
1927266N10324 1927 50 NA NA NOT_NAMED 1927-09-25 15:00:00 TS 15.4924 -43.4076 main 1523 1514 P_____________ AL031927 15.4924 -43.4076 TS 40 0 9 297
1927266N10324 1927 50 NA NA NOT_NAMED 1927-09-25 18:00:00 TS 15.7000 -43.8000 40 hurdat_atl main 1517 1509 O_____________ hurdat_atl AL031927 15.7000 -43.8000 TS 40 0 9 300
1927266N10324 1927 50 NA NA NOT_NAMED 1927-09-25 21:00:00 TS 15.9349 -44.2001 main 1509 1504 P_____________ AL031927 15.9349 -44.2001 TS 40 0 9 303
1927266N10324 1927 50 NA NA NOT_NAMED 1927-09-26 00:00:00 TS 16.2000 -44.6000 40 hurdat_atl main 1510 1503 O_____________ hurdat_atl AL031927 16.2000 -44.6000 TS 40 0 10 305
1927266N10324 1927 50 NA NA NOT_NAMED 1927-09-26 03:00:00 TS 16.4925 -45.0150 main 1512 1506 P_____________ AL031927 16.4925 -45.0150 TS 40 0 10 308
1927266N10324 1927 50 NA NA NOT_NAMED 1927-09-26 06:00:00 TS 16.8000 -45.4000 40 hurdat_atl main 1517 1512 O_____________ hurdat_atl AL031927 16.8000 -45.4000 TS 40 0 9 311
1927266N10324 1927 50 NA NA NOT_NAMED 1927-09-26 09:00:00 TS 17.0850 -45.7376 main 1530 1524 P_____________ AL031927 17.0850 -45.7376 TS 40 0 8 316
1927266N10324 1927 50 NA NA NOT_NAMED 1927-09-26 12:00:00 TS 17.4000 -46.0000 40 hurdat_atl main 1543 1543 O_____________ hurdat_atl AL031927 17.4000 -46.0000 TS 40 0 8 328
1927266N10324 1927 50 NA NA NOT_NAMED 1927-09-26 15:00:00 TS 17.7699 -46.1876 main 1573 1573 P_____________ AL031927 17.7699 -46.1876 TS 40 0 9 340
1927266N10324 1927 50 NA NA NOT_NAMED 1927-09-26 18:00:00 TS 18.2000 -46.3000 40 hurdat_atl main 1608 1608 O_____________ hurdat_atl AL031927 18.2000 -46.3000 TS 40 0 9 350
1927266N10324 1927 50 NA NA NOT_NAMED 1927-09-26 21:00:00 TS 18.6775 -46.3651 main 1653 1653 P_____________ AL031927 18.6775 -46.3651 TS 40 0 10 354
1927266N10324 1927 50 NA NA NOT_NAMED 1927-09-27 00:00:00 TS 19.2000 -46.4000 40 hurdat_atl main 1704 1704 O_____________ hurdat_atl AL031927 19.2000 -46.4000 TS 40 0 11 355
1927266N10324 1927 50 NA NA NOT_NAMED 1927-09-27 03:00:00 TS 19.7350 -46.4574 main 1750 1750 P_____________ AL031927 19.7350 -46.4574 TS 40 0 11 355
1927266N10324 1927 50 NA NA NOT_NAMED 1927-09-27 06:00:00 TS 20.3000 -46.5000 40 hurdat_atl main 1812 1812 O_____________ hurdat_atl AL031927 20.3000 -46.5000 TS 40 0 11 358
1927266N10324 1927 50 NA NA NOT_NAMED 1927-09-27 09:00:00 TS 20.8700 -46.5002 main 1873 1873 P_____________ AL031927 20.8700 -46.5002 TS 42 0 12 1
1927266N10324 1927 50 NA NA NOT_NAMED 1927-09-27 12:00:00 TS 21.5000 -46.5000 45 hurdat_atl main 1933 1933 O_____________ hurdat_atl AL031927 21.5000 -46.5000 TS 45 0 14 0
1927266N10324 1927 50 NA NA NOT_NAMED 1927-09-27 15:00:00 TS 22.2275 -46.5277 main 2003 2003 P_____________ AL031927 22.2275 -46.5277 TS 45 0 15 357
1927266N10324 1927 50 NA NA NOT_NAMED 1927-09-27 18:00:00 TS 23.0000 -46.6000 45 hurdat_atl main 2040 2039 O_____________ hurdat_atl AL031927 23.0000 -46.6000 TS 45 0 15 353
1927266N10324 1927 50 NA NA NOT_NAMED 1927-09-27 21:00:00 TS 23.7500 -46.7276 main 2046 2041 P_____________ AL031927 23.7500 -46.7276 TS 47 0 15 350
1927266N10324 1927 50 NA NA NOT_NAMED 1927-09-28 00:00:00 TS 24.5000 -46.9000 50 hurdat_atl main 2049 2045 O_____________ hurdat_atl AL031927 24.5000 -46.9000 TS 50 0 15 347
1927266N10324 1927 50 NA NA NOT_NAMED 1927-09-28 03:00:00 TS 25.2500 -47.1073 main 2056 2050 P_____________ AL031927 25.2500 -47.1073 TS 55 0 16 346
1927266N10324 1927 50 NA NA NOT_NAMED 1927-09-28 06:00:00 TS 26.0000 -47.3000 60 hurdat_atl main 2063 2061 O_____________ hurdat_atl AL031927 26.0000 -47.3000 TS 60 0 15 349
1927266N10324 1927 50 NA NA NOT_NAMED 1927-09-28 09:00:00 TS 26.7125 -47.4301 main 2082 2082 P_____________ AL031927 26.7125 -47.4301 TS 65 1 15 353
1927266N10324 1927 50 NA NA NOT_NAMED 1927-09-28 12:00:00 TS 27.5000 -47.5000 70 hurdat_atl main 2109 2086 O_____________ hurdat_atl AL031927 27.5000 -47.5000 HU 70 1 17 357
1927266N10324 1927 50 NA NA NOT_NAMED 1927-09-28 15:00:00 TS 28.4475 -47.5371 main 2086 1977 P_____________ AL031927 28.4475 -47.5371 HU 70 1 20 0
1927266N10324 1927 50 NA NA NOT_NAMED 1927-09-28 18:00:00 TS 29.5000 -47.5000 70 hurdat_atl main 1966 1860 O_____________ hurdat_atl AL031927 29.5000 -47.5000 HU 70 1 21 4
1927266N10324 1927 50 NA NA NOT_NAMED 1927-09-28 21:00:00 TS 30.5775 -47.3801 main 1849 1746 P_____________ AL031927 30.5775 -47.3801 HU 65 1 22 7
1927266N10324 1927 50 NA NA NOT_NAMED 1927-09-29 00:00:00 TS 31.7000 -47.2000 60 hurdat_atl main 1735 1623 O_____________ hurdat_atl AL031927 31.7000 -47.2000 TS 60 0 23 8
1927266N10324 1927 50 NA NA NOT_NAMED 1927-09-29 03:00:00 TS 32.8450 -47.0034 main 1623 1512 P_____________ AL031927 32.8450 -47.0034 TS 55 0 23 8
1927266N10324 1927 50 NA NA NOT_NAMED 1927-09-29 06:00:00 ET 34.0000 -46.8000 50 hurdat_atl main 1501 O_____________ hurdat_atl AL031927 34.0000 -46.8000 EX 50 -4 23 8

About IBTrACS Database

This database is a web-friendly format of International Best Track Archive for Climate Stewardship (IBTrACS), a global best track data archive curated by NOAA dating back to 1842.

Updated: 2021-11-26